createdAt,value
2017-09-13T00:00:53.934Z,99846.48
2017-09-13T00:03:24.752Z,99849.36
2017-09-13T00:05:55.833Z,99838.69
2017-09-13T00:08:23.987Z,99832.60
2017-09-13T00:10:50.926Z,99839.43
2017-09-13T00:13:22.204Z,99830.42
2017-09-13T00:15:49.533Z,99827.63
2017-09-13T00:18:22.504Z,99816.78
2017-09-13T00:20:49.353Z,99810.73
2017-09-13T00:23:16.439Z,99801.92
2017-09-13T00:25:44.134Z,99799.84
2017-09-13T00:28:11.827Z,99780.70
2017-09-13T00:30:40.248Z,99777.46
2017-09-13T00:33:07.433Z,99766.70
2017-09-13T00:35:35.264Z,99737.75
2017-09-13T00:38:02.340Z,99722.77
2017-09-13T00:40:29.179Z,99717.36
2017-09-13T00:42:56.049Z,99717.59
2017-09-13T00:45:23.791Z,99709.82
2017-09-13T00:47:50.752Z,99699.95
2017-09-13T00:50:17.773Z,99683.58
2017-09-13T00:52:45.464Z,99682.19
2017-09-13T00:55:13.255Z,99673.64
2017-09-13T00:57:40.367Z,99672.19
2017-09-13T01:00:07.216Z,99662.86
2017-09-13T01:02:46.586Z,99653.80
2017-09-13T01:05:19.002Z,99635.19
2017-09-13T01:07:46.615Z,99632.53
2017-09-13T01:10:14.750Z,99613.11
2017-09-13T01:12:41.786Z,99601.23
2017-09-13T01:15:08.734Z,99606.03
2017-09-13T01:17:36.621Z,99595.35
2017-09-13T01:20:04.595Z,99583.76
2017-09-13T01:22:31.533Z,99586.62
2017-09-13T01:24:58.462Z,99559.13
2017-09-13T01:27:25.354Z,99553.38
2017-09-13T01:29:52.606Z,99556.61
2017-09-13T01:32:19.524Z,99550.81
2017-09-13T01:34:49.637Z,99542.31
2017-09-13T01:37:17.702Z,99536.37
2017-09-13T01:39:50.415Z,99540.59
2017-09-13T01:42:17.411Z,99535.28
2017-09-13T01:44:44.331Z,99521.36
2017-09-13T01:47:11.258Z,99500.77
2017-09-13T01:49:43.426Z,99498.00
2017-09-13T01:52:15.896Z,99493.92
2017-09-13T01:54:43.680Z,99497.48
2017-09-13T01:57:15.303Z,99515.02
2017-09-13T01:59:42.683Z,99512.67
2017-09-13T02:02:09.607Z,99537.75
2017-09-13T02:04:39.639Z,99535.95
2017-09-13T02:07:09.716Z,99513.53
2017-09-13T02:09:39.648Z,99513.30
2017-09-13T02:12:11.636Z,99493.81
2017-09-13T02:14:38.553Z,99471.20
2017-09-13T02:17:09.728Z,99451.17
2017-09-13T02:19:36.819Z,99434.31
2017-09-13T02:22:03.852Z,99434.07
2017-09-13T02:24:37.303Z,99422.39
2017-09-13T02:27:07.399Z,99419.48
2017-09-13T02:29:35.011Z,99412.13
2017-09-13T02:32:07.913Z,99377.69
2017-09-13T02:34:41.408Z,99387.53
2017-09-13T02:37:08.648Z,99364.04
2017-09-13T02:39:35.999Z,99346.69
2017-09-13T02:42:04.400Z,99342.12
2017-09-13T02:44:31.451Z,99341.36
2017-09-13T02:47:03.553Z,99317.31
2017-09-13T02:49:30.410Z,99334.41
2017-09-13T02:51:57.239Z,99319.66
2017-09-13T02:54:24.110Z,99308.63
2017-09-13T02:56:50.927Z,99305.36
2017-09-13T02:59:17.852Z,99298.80
2017-09-13T03:01:44.748Z,99285.87
2017-09-13T03:04:11.580Z,99281.62
2017-09-13T03:06:40.144Z,99265.88
2017-09-13T03:09:06.969Z,99249.20
2017-09-13T03:11:33.778Z,99244.85
2017-09-13T03:14:01.340Z,99244.40
2017-09-13T03:16:28.153Z,99233.84
2017-09-13T03:18:54.955Z,99221.05
2017-09-13T03:21:21.807Z,99225.63
2017-09-13T03:23:48.658Z,99219.52
2017-09-13T03:26:15.507Z,99214.97
2017-09-13T03:28:42.412Z,99225.47
2017-09-13T03:31:09.279Z,99223.35
2017-09-13T03:33:36.126Z,99206.81
2017-09-13T03:36:02.996Z,99185.80
2017-09-13T03:38:29.843Z,99192.44
2017-09-13T03:40:56.705Z,99178.80
2017-09-13T03:43:23.538Z,99179.47
2017-09-13T03:45:50.346Z,99164.17
2017-09-13T03:48:17.943Z,99153.83
2017-09-13T03:50:44.731Z,99157.80
2017-09-13T03:53:11.609Z,99137.80
2017-09-13T03:55:38.404Z,99135.63
2017-09-13T03:58:05.983Z,99124.25
2017-09-13T04:00:32.850Z,99116.42
2017-09-13T04:02:59.756Z,99125.72
2017-09-13T04:05:26.618Z,99120.83
2017-09-13T04:07:53.542Z,99108.87
2017-09-13T04:10:21.130Z,99093.25
2017-09-13T04:12:47.967Z,99082.66
2017-09-13T04:15:14.840Z,99077.23
2017-09-13T04:17:42.455Z,99073.75
2017-09-13T04:20:09.272Z,99061.66
2017-09-13T04:22:36.122Z,99068.23
2017-09-13T04:25:03.046Z,99062.66
2017-09-13T04:27:29.900Z,99062.78
2017-09-13T04:29:56.756Z,99051.60
2017-09-13T04:32:23.582Z,99060.68
2017-09-13T04:34:51.194Z,99052.59
2017-09-13T04:37:18.054Z,99039.38
2017-09-13T04:39:44.924Z,99050.91
2017-09-13T04:42:11.760Z,99042.97
2017-09-13T04:44:38.607Z,99031.50
2017-09-13T04:47:06.183Z,99037.02
2017-09-13T04:49:33.767Z,99041.36
2017-09-13T04:52:01.326Z,99039.17
2017-09-13T04:54:28.171Z,99028.65
2017-09-13T04:56:55.021Z,99030.16
2017-09-13T04:59:21.867Z,99023.88
2017-09-13T05:01:48.722Z,99041.49
2017-09-13T05:04:15.531Z,99038.69
2017-09-13T05:06:42.391Z,99022.83
2017-09-13T05:09:09.287Z,99023.48
2017-09-13T05:11:36.125Z,99018.09
2017-09-13T05:14:03.030Z,99006.62
2017-09-13T05:16:29.912Z,99007.95
2017-09-13T05:18:56.792Z,99011.59
2017-09-13T05:21:23.664Z,99017.05
2017-09-13T05:23:50.722Z,99034.23
2017-09-13T05:26:17.625Z,99023.69
2017-09-13T05:28:45.207Z,99014.03
2017-09-13T05:31:13.005Z,98998.31
2017-09-13T05:33:39.881Z,99012.14
2017-09-13T05:36:06.912Z,99004.48
2017-09-13T05:38:33.821Z,98999.23
2017-09-13T05:41:01.103Z,99002.39
2017-09-13T05:43:28.717Z,98994.91
2017-09-13T05:45:55.573Z,98980.39
2017-09-13T05:48:23.184Z,98976.50
2017-09-13T05:50:50.031Z,98971.82
2017-09-13T05:53:16.863Z,98973.01
2017-09-13T05:55:43.689Z,98984.56
2017-09-13T05:58:10.971Z,98984.36
2017-09-13T06:00:37.852Z,98983.38
2017-09-13T06:03:05.460Z,98974.34
2017-09-13T06:05:32.314Z,98980.58
2017-09-13T06:07:59.871Z,98976.30
2017-09-13T06:10:26.708Z,98984.05
2017-09-13T06:12:53.573Z,98984.48
2017-09-13T06:15:20.410Z,98985.52
2017-09-13T06:17:47.235Z,98986.05
2017-09-13T06:20:14.096Z,98985.42
2017-09-13T06:22:40.936Z,98999.68
2017-09-13T06:25:07.751Z,98991.71
2017-09-13T06:27:34.591Z,98998.27
2017-09-13T06:30:01.444Z,98987.31
2017-09-13T06:32:28.296Z,98986.14
2017-09-13T06:34:55.130Z,99004.31
2017-09-13T06:37:22.014Z,98997.77
2017-09-13T06:39:49.672Z,99001.75
2017-09-13T06:42:16.545Z,99011.30
2017-09-13T06:44:44.120Z,98994.36
2017-09-13T06:47:11.696Z,98986.60
2017-09-13T06:49:38.541Z,98978.36
2017-09-13T06:52:05.376Z,98976.73
2017-09-13T06:54:32.234Z,98982.97
2017-09-13T06:56:59.105Z,98983.08
2017-09-13T06:59:25.997Z,98984.76
2017-09-13T07:01:52.913Z,98977.05
2017-09-13T07:04:19.766Z,98970.30
2017-09-13T07:06:46.622Z,98974.88
2017-09-13T07:09:13.526Z,98987.27
2017-09-13T07:11:40.359Z,99005.19
2017-09-13T07:14:07.190Z,98995.63
2017-09-13T07:16:34.776Z,98982.16
2017-09-13T07:19:01.595Z,98981.67
2017-09-13T07:21:28.451Z,98974.97
2017-09-13T07:23:55.310Z,98959.98
2017-09-13T07:26:22.149Z,98969.91
2017-09-13T07:28:48.987Z,98954.45
2017-09-13T07:31:15.831Z,98974.05
2017-09-13T07:33:43.399Z,98979.63
2017-09-13T07:36:10.227Z,98974.89
2017-09-13T07:38:37.055Z,98979.11
2017-09-13T07:41:03.891Z,98963.98
2017-09-13T07:43:31.448Z,98976.91
2017-09-13T07:45:58.325Z,98984.19
2017-09-13T07:48:25.892Z,98984.67
2017-09-13T07:50:52.755Z,99036.17
2017-09-13T07:53:19.594Z,98989.84
2017-09-13T07:55:46.418Z,98971.23
2017-09-13T07:58:13.263Z,98986.06
2017-09-13T08:00:40.112Z,98988.08
2017-09-13T08:03:07.674Z,98985.80
2017-09-13T08:05:34.542Z,98995.45
2017-09-13T08:08:02.130Z,98996.08
2017-09-13T08:10:29.696Z,98986.97
2017-09-13T08:12:56.520Z,99012.88
2017-09-13T08:15:24.525Z,99002.33
2017-09-13T08:17:51.360Z,99012.79
2017-09-13T08:20:18.224Z,99013.41
2017-09-13T08:22:45.102Z,99018.70
2017-09-13T08:25:11.969Z,99011.74
2017-09-13T08:27:38.836Z,99008.69
2017-09-13T08:30:05.687Z,99008.98
2017-09-13T08:32:32.531Z,99014.08
2017-09-13T08:34:59.349Z,99025.27
2017-09-13T08:37:26.932Z,98990.31
2017-09-13T08:39:53.822Z,99004.09
2017-09-13T08:42:21.383Z,99009.13
2017-09-13T08:44:48.181Z,99019.14
2017-09-13T08:47:15.014Z,99013.05
2017-09-13T08:49:41.870Z,99020.58
2017-09-13T08:52:08.731Z,99012.86
2017-09-13T08:54:35.584Z,99019.87
2017-09-13T08:57:02.457Z,99027.41
2017-09-13T08:59:29.379Z,99022.24
2017-09-13T09:01:56.206Z,99037.14
2017-09-13T09:04:23.762Z,99033.85
2017-09-13T09:06:50.604Z,99037.94
2017-09-13T09:09:17.488Z,99055.86
2017-09-13T09:11:44.325Z,99053.05
2017-09-13T09:14:11.921Z,99037.53
2017-09-13T09:16:38.778Z,99039.19
2017-09-13T09:19:05.600Z,99045.91
2017-09-13T09:21:32.425Z,99058.28
2017-09-13T09:23:59.247Z,99058.59
2017-09-13T09:26:26.063Z,99060.19
2017-09-13T09:28:52.902Z,99071.53
2017-09-13T09:31:19.765Z,99040.54
2017-09-13T09:33:46.601Z,99077.58
2017-09-13T09:36:13.432Z,99038.94
2017-09-13T09:38:40.999Z,99049.58
2017-09-13T09:41:07.841Z,99052.45
2017-09-13T09:43:34.741Z,99054.87
2017-09-13T09:46:02.322Z,99053.36
2017-09-13T09:48:29.888Z,99068.23
2017-09-13T09:50:57.471Z,99089.02
2017-09-13T09:53:25.042Z,99067.14
2017-09-13T09:55:51.872Z,99070.06
2017-09-13T09:58:18.709Z,99073.41
2017-09-13T10:00:45.550Z,99073.16
2017-09-13T10:03:12.377Z,99087.94
2017-09-13T10:05:39.986Z,99084.67
2017-09-13T10:08:06.800Z,99073.23
2017-09-13T10:10:34.412Z,99085.41
2017-09-13T10:13:01.995Z,99070.23
2017-09-13T10:15:29.586Z,99086.31
2017-09-13T10:17:56.429Z,99082.47
2017-09-13T10:20:23.287Z,99082.16
2017-09-13T10:22:50.851Z,99080.77
2017-09-13T10:25:17.694Z,99094.19
2017-09-13T10:27:44.580Z,99085.22
2017-09-13T10:30:12.164Z,99091.16
2017-09-13T10:32:39.735Z,99096.00
2017-09-13T10:35:06.560Z,99092.11
2017-09-13T10:37:33.411Z,99106.84
2017-09-13T10:40:00.269Z,99106.89
2017-09-13T10:42:27.137Z,99111.86
2017-09-13T10:44:53.997Z,99120.53
2017-09-13T10:47:20.865Z,99132.31
2017-09-13T10:49:47.681Z,99121.87
2017-09-13T10:52:15.231Z,99131.28
2017-09-13T10:54:42.055Z,99135.78
2017-09-13T10:57:08.885Z,99142.19
2017-09-13T10:59:35.724Z,99147.64
2017-09-13T11:02:03.355Z,99141.13
2017-09-13T11:04:30.182Z,99160.20
2017-09-13T11:06:57.043Z,99147.64
2017-09-13T11:09:23.891Z,99161.94
2017-09-13T11:11:51.483Z,99155.63
2017-09-13T11:14:18.323Z,99171.00
2017-09-13T11:16:46.648Z,99178.72
2017-09-13T11:19:13.498Z,99179.19
2017-09-13T11:21:40.347Z,99166.16
2017-09-13T11:24:07.891Z,99164.09
2017-09-13T11:26:34.728Z,99164.75
2017-09-13T11:29:01.545Z,99169.93
2017-09-13T11:31:29.129Z,99181.19
2017-09-13T11:33:55.975Z,99181.64
2017-09-13T11:36:22.847Z,99191.06
2017-09-13T11:38:50.463Z,99202.03
2017-09-13T11:41:17.323Z,99182.96
2017-09-13T11:43:44.191Z,99199.37
2017-09-13T11:46:12.094Z,99202.30
2017-09-13T11:48:39.033Z,99219.02
2017-09-13T11:51:05.889Z,99224.13
2017-09-13T11:53:32.734Z,99202.18
2017-09-13T11:55:59.587Z,99216.55
2017-09-13T11:58:27.165Z,99230.90
2017-09-13T12:00:54.014Z,99220.02
2017-09-13T12:03:20.874Z,99265.12
2017-09-13T12:05:47.715Z,99244.79
2017-09-13T12:08:16.028Z,99250.41
2017-09-13T12:10:42.865Z,99253.50
2017-09-13T12:13:09.732Z,99253.21
2017-09-13T12:15:36.555Z,99243.02
2017-09-13T12:18:03.416Z,99238.83
2017-09-13T12:20:30.261Z,99238.98
2017-09-13T12:22:57.121Z,99229.41
2017-09-13T12:25:23.953Z,99243.84
2017-09-13T12:27:50.825Z,99236.63
2017-09-13T12:30:18.404Z,99226.92
2017-09-13T12:32:46.022Z,99236.86
2017-09-13T12:35:12.912Z,99252.05
2017-09-13T12:37:39.763Z,99258.47
2017-09-13T12:40:06.587Z,99256.20
2017-09-13T12:42:33.421Z,99263.42
2017-09-13T12:45:01.070Z,99264.47
2017-09-13T12:47:27.990Z,99267.94
2017-09-13T12:49:54.841Z,99276.40
2017-09-13T12:52:22.448Z,99257.20
2017-09-13T12:54:49.260Z,99276.95
2017-09-13T12:57:16.090Z,99282.09
2017-09-13T12:59:42.952Z,99277.19
2017-09-13T13:02:09.807Z,99274.80
2017-09-13T13:04:36.685Z,99277.47
2017-09-13T13:07:03.545Z,99286.14
2017-09-13T13:09:30.421Z,99288.58
2017-09-13T13:11:57.279Z,99298.20
2017-09-13T13:14:24.127Z,99290.63
2017-09-13T13:16:50.951Z,99288.62
2017-09-13T13:19:17.799Z,99283.41
2017-09-13T13:21:44.596Z,99288.02
2017-09-13T13:24:11.462Z,99293.72
2017-09-13T13:26:38.318Z,99281.33
2017-09-13T13:29:05.237Z,99284.25
2017-09-13T13:31:32.843Z,99285.77
2017-09-13T13:33:59.690Z,99299.92
2017-09-13T13:36:26.528Z,99306.26
2017-09-13T13:38:54.094Z,99312.88
2017-09-13T13:41:20.929Z,99314.55
2017-09-13T13:43:47.752Z,99327.34
2017-09-13T13:46:14.572Z,99310.36
2017-09-13T13:48:41.371Z,99319.73
2017-09-13T13:51:08.249Z,99326.08
2017-09-13T13:53:35.094Z,99316.89
2017-09-13T13:56:01.930Z,99323.34
2017-09-13T13:58:29.532Z,99326.91
2017-09-13T14:00:56.394Z,99319.73
2017-09-13T14:03:23.266Z,99315.71
2017-09-13T14:05:50.127Z,99319.09
2017-09-13T14:08:17.001Z,99328.56
2017-09-13T14:10:43.837Z,99326.15
2017-09-13T14:13:10.670Z,99333.66
2017-09-13T14:15:37.596Z,99320.21
2017-09-13T14:18:04.449Z,99332.23
2017-09-13T14:20:31.338Z,99337.37
2017-09-13T14:22:58.410Z,99338.30
2017-09-13T14:25:26.556Z,99331.59
2017-09-13T14:27:53.484Z,99345.56
2017-09-13T14:30:20.402Z,99348.68
2017-09-13T14:32:47.268Z,99351.02
2017-09-13T14:35:14.162Z,99344.98
2017-09-13T14:37:40.985Z,99345.28
2017-09-13T14:40:07.870Z,99349.08
2017-09-13T14:42:34.732Z,99358.94
2017-09-13T14:45:01.592Z,99370.61
2017-09-13T14:47:28.440Z,99364.03
2017-09-13T14:49:55.378Z,99328.53
2017-09-13T14:52:22.236Z,99343.02
2017-09-13T14:54:49.085Z,99347.09
2017-09-13T14:57:15.924Z,99343.86
2017-09-13T14:59:43.499Z,99340.17
2017-09-13T15:02:11.092Z,99333.88
2017-09-13T15:04:38.684Z,99338.94
2017-09-13T15:07:05.510Z,99340.01
2017-09-13T15:09:32.425Z,99342.31
2017-09-13T15:11:59.229Z,99342.41
2017-09-13T15:14:26.132Z,99331.77
2017-09-13T15:16:53.694Z,99331.13
2017-09-13T15:19:20.593Z,99327.94
2017-09-13T15:21:47.423Z,99325.51
2017-09-13T15:24:14.335Z,99325.64
2017-09-13T15:26:41.173Z,99329.59
2017-09-13T15:29:07.992Z,99337.08
2017-09-13T15:31:39.242Z,99333.88
2017-09-13T15:34:06.162Z,99334.58
2017-09-13T15:36:32.982Z,99326.18
2017-09-13T15:39:00.545Z,99327.86
2017-09-13T15:41:28.095Z,99322.77
2017-09-13T15:43:54.888Z,99322.77
2017-09-13T15:46:21.761Z,99315.30
2017-09-13T15:48:49.364Z,99320.02
2017-09-13T15:51:16.169Z,99318.41
2017-09-13T15:53:42.999Z,99322.77
2017-09-13T15:56:09.843Z,99326.09
2017-09-13T15:58:36.679Z,99320.08
2017-09-13T16:01:04.243Z,99322.14
2017-09-13T16:03:31.833Z,99315.64
2017-09-13T16:05:59.372Z,99328.00
2017-09-13T16:08:26.203Z,99323.97
2017-09-13T16:10:53.824Z,99315.63
2017-09-13T16:13:21.247Z,99320.89
2017-09-13T16:15:48.643Z,99319.84
2017-09-13T16:18:15.477Z,99308.36
2017-09-13T16:20:42.376Z,99321.03
2017-09-13T16:23:09.595Z,99302.50
2017-09-13T16:25:37.176Z,99317.91
2017-09-13T16:28:04.445Z,99321.75
2017-09-13T16:30:31.559Z,99321.89
2017-09-13T16:32:58.404Z,99331.17
2017-09-13T16:35:25.901Z,99334.48
2017-09-13T16:37:52.934Z,99332.56
2017-09-13T16:40:19.813Z,99329.49
2017-09-13T16:42:46.927Z,99328.42
2017-09-13T16:45:13.757Z,99335.28
2017-09-13T16:47:40.591Z,99326.61
2017-09-13T16:50:07.435Z,99333.34
2017-09-13T16:52:34.293Z,99331.42
2017-09-13T16:55:01.105Z,99333.77
2017-09-13T16:57:27.931Z,99322.59
2017-09-13T16:59:54.793Z,99321.66
2017-09-13T17:02:21.638Z,99324.63
2017-09-13T17:04:48.482Z,99322.64
2017-09-13T17:07:16.118Z,99314.27
2017-09-13T17:09:42.939Z,99321.18
2017-09-13T17:12:09.800Z,99322.36
2017-09-13T17:14:36.629Z,99321.67
2017-09-13T17:17:03.466Z,99320.92
2017-09-13T17:19:30.331Z,99338.96
2017-09-13T17:21:57.229Z,99346.78
2017-09-13T17:24:24.819Z,99331.12
2017-09-13T17:26:51.743Z,99334.76
2017-09-13T17:29:18.611Z,99332.88
2017-09-13T17:31:45.508Z,99333.24
2017-09-13T17:34:12.473Z,99327.22
2017-09-13T17:36:39.431Z,99318.27
2017-09-13T17:39:07.054Z,99320.23
2017-09-13T17:41:33.963Z,99320.42
2017-09-13T17:44:01.565Z,99320.82
2017-09-13T17:46:28.443Z,99319.41
2017-09-13T17:48:55.396Z,99313.86
2017-09-13T17:51:23.253Z,99307.53
2017-09-13T17:53:50.156Z,99314.44
2017-09-13T17:56:17.652Z,99316.83
2017-09-13T17:58:44.786Z,99307.95
2017-09-13T18:01:12.651Z,99306.64
2017-09-13T18:03:39.745Z,99306.76
2017-09-13T18:06:06.752Z,99312.71
2017-09-13T18:08:34.388Z,99313.30
2017-09-13T18:11:01.327Z,99308.72
2017-09-13T18:13:28.249Z,99310.75
2017-09-13T18:15:55.157Z,99308.88
2017-09-13T18:18:22.587Z,99304.09
2017-09-13T18:20:49.518Z,99307.77
2017-09-13T18:23:16.399Z,99310.12
2017-09-13T18:25:43.551Z,99318.66
2017-09-13T18:28:10.404Z,99314.08
2017-09-13T18:30:37.341Z,99315.17
2017-09-13T18:33:04.250Z,99324.75
2017-09-13T18:35:31.159Z,99328.00
2017-09-13T18:37:58.755Z,99319.08
2017-09-13T18:40:25.897Z,99323.28
2017-09-13T18:42:54.238Z,99326.44
2017-09-13T18:45:21.451Z,99327.28
2017-09-13T18:47:48.343Z,99326.19
2017-09-13T18:50:15.268Z,99323.05
2017-09-13T18:52:42.971Z,99314.84
2017-09-13T18:55:11.221Z,99316.88
2017-09-13T18:57:38.069Z,99323.89
2017-09-13T19:00:05.457Z,99326.95
2017-09-13T19:02:32.603Z,99330.59
2017-09-13T19:04:59.929Z,99328.21
2017-09-13T19:07:26.862Z,99327.33
2017-09-13T19:09:53.797Z,99323.09
2017-09-13T19:12:20.791Z,99325.21
2017-09-13T19:14:48.113Z,99316.75
2017-09-13T19:17:15.006Z,99319.22
2017-09-13T19:19:42.026Z,99322.80
2017-09-13T19:22:09.616Z,99320.03
2017-09-13T19:24:36.638Z,99326.08
2017-09-13T19:27:03.865Z,99326.98
2017-09-13T19:29:30.757Z,99329.70
2017-09-13T19:31:57.656Z,99336.19
2017-09-13T19:34:24.499Z,99338.71
2017-09-13T19:36:51.439Z,99337.61
2017-09-13T19:39:19.234Z,99334.59
2017-09-13T19:41:46.489Z,99332.06
2017-09-13T19:44:13.382Z,99330.14
2017-09-13T19:46:41.216Z,99334.28
2017-09-13T19:49:08.107Z,99332.97
2017-09-13T19:51:35.658Z,99336.39
2017-09-13T19:54:02.742Z,99329.98
2017-09-13T19:56:29.707Z,99320.09
2017-09-13T19:58:56.782Z,99326.17
2017-09-13T20:01:23.702Z,99322.31
2017-09-13T20:03:50.546Z,99327.17
2017-09-13T20:06:17.428Z,99328.00
2017-09-13T20:08:44.323Z,99323.45
2017-09-13T20:11:11.157Z,99327.86
2017-09-13T20:13:38.351Z,99331.70
2017-09-13T20:16:05.555Z,99334.56
2017-09-13T20:18:32.444Z,99337.52
2017-09-13T20:21:00.026Z,99332.40
2017-09-13T20:23:26.867Z,99328.77
2017-09-13T20:25:54.443Z,99333.12
2017-09-13T20:28:21.254Z,99335.36
2017-09-13T20:30:48.824Z,99336.75
2017-09-13T20:33:15.661Z,99333.31
2017-09-13T20:35:42.514Z,99341.23
2017-09-13T20:38:10.093Z,99336.31
2017-09-13T20:40:37.732Z,99340.75
2017-09-13T20:43:04.575Z,99333.05
2017-09-13T20:45:31.375Z,99335.92
2017-09-13T20:47:58.243Z,99336.33
2017-09-13T20:50:25.106Z,99328.22
2017-09-13T20:52:51.918Z,99327.94
2017-09-13T20:55:18.752Z,99323.53
2017-09-13T20:57:45.575Z,99325.21
2017-09-13T21:00:12.436Z,99325.77
2017-09-13T21:02:39.267Z,99322.60
2017-09-13T21:05:06.083Z,99312.34
2017-09-13T21:07:33.620Z,99314.98
2017-09-13T21:10:00.443Z,99318.55
2017-09-13T21:12:28.077Z,99309.59
2017-09-13T21:14:54.898Z,99323.95
2017-09-13T21:17:21.704Z,99311.83
2017-09-13T21:19:48.520Z,99313.58
2017-09-13T21:22:15.377Z,99310.36
2017-09-13T21:24:42.182Z,99310.29
2017-09-13T21:27:09.051Z,99308.33
2017-09-13T21:29:35.884Z,99305.32
2017-09-13T21:32:02.715Z,99301.39
2017-09-13T21:34:29.558Z,99304.34
2017-09-13T21:36:56.392Z,99288.89
2017-09-13T21:39:23.242Z,99290.33
2017-09-13T21:41:50.040Z,99287.92
2017-09-13T21:44:16.883Z,99289.33
2017-09-13T21:46:44.459Z,99291.64
2017-09-13T21:49:11.296Z,99293.11
2017-09-13T21:51:38.108Z,99292.02
2017-09-13T21:54:04.938Z,99294.47
2017-09-13T21:56:31.806Z,99296.20
2017-09-13T21:58:58.639Z,99298.65
2017-09-13T22:01:25.530Z,99296.25
2017-09-13T22:03:53.086Z,99300.80
2017-09-13T22:06:19.888Z,99292.33
2017-09-13T22:08:46.676Z,99279.05
2017-09-13T22:11:13.518Z,99289.97
2017-09-13T22:13:40.347Z,99282.31
2017-09-13T22:16:07.926Z,99279.50
2017-09-13T22:18:35.478Z,99271.45
2017-09-13T22:21:02.283Z,99275.39
2017-09-13T22:23:29.114Z,99265.00
2017-09-13T22:25:55.903Z,99268.49
2017-09-13T22:33:27.561Z,99265.86
2017-09-13T22:35:54.351Z,99257.62
2017-09-13T22:38:21.105Z,99270.50
2017-09-13T22:40:47.874Z,99271.59
2017-09-13T22:43:14.683Z,99286.98
2017-09-13T22:45:41.492Z,99307.77
2017-09-13T22:48:08.374Z,99310.73
2017-09-13T22:50:35.241Z,99309.94
2017-09-13T22:53:02.840Z,99301.48
2017-09-13T22:55:29.667Z,99293.43
2017-09-13T22:57:56.542Z,99291.27
2017-09-13T23:00:23.418Z,99278.71
2017-09-13T23:02:50.260Z,99274.05
2017-09-13T23:05:17.059Z,99280.33
2017-09-13T23:15:20.969Z,99293.23
2017-09-13T23:17:47.849Z,99290.10
2017-09-13T23:20:17.814Z,99295.90
2017-09-13T23:22:44.853Z,99302.67
2017-09-13T23:25:12.655Z,99302.62
2017-09-13T23:27:39.968Z,99299.61
2017-09-13T23:30:07.560Z,99301.63
2017-09-13T23:32:35.559Z,99310.70
2017-09-13T23:35:02.412Z,99303.30
2017-09-13T23:37:29.532Z,99309.58
2017-09-13T23:39:57.055Z,99315.38
2017-09-13T23:42:24.723Z,99318.17
2017-09-13T23:44:52.686Z,99320.30
2017-09-13T23:47:20.785Z,99318.38
2017-09-13T23:49:47.671Z,99325.21
2017-09-13T23:52:15.279Z,99330.17
2017-09-13T23:54:42.115Z,99327.61
2017-09-13T23:57:08.954Z,99336.50
2017-09-13T23:59:36.519Z,99343.77
